sensor_id;sensor_type;location;lat;lon;timestamp;P1;durP1;ratioP1;P2;durP2;ratioP2
5977;SDS011;3015;51.390;12.256;2022-10-13T00:01:42;12.10;;;10.20;;
5977;SDS011;3015;51.390;12.256;2022-10-13T00:04:08;11.20;;;10.10;;
5977;SDS011;3015;51.390;12.256;2022-10-13T00:06:34;11.37;;;9.20;;
5977;SDS011;3015;51.390;12.256;2022-10-13T00:08:59;12.07;;;10.87;;
5977;SDS011;3015;51.390;12.256;2022-10-13T00:11:27;13.10;;;10.40;;
5977;SDS011;3015;51.390;12.256;2022-10-13T00:13:58;12.20;;;10.15;;
5977;SDS011;3015;51.390;12.256;2022-10-13T00:16:26;13.65;;;10.10;;
5977;SDS011;3015;51.390;12.256;2022-10-13T00:18:52;13.13;;;10.57;;
5977;SDS011;3015;51.390;12.256;2022-10-13T00:21:19;18.42;;;11.95;;
5977;SDS011;3015;51.390;12.256;2022-10-13T00:23:47;11.95;;;10.82;;
5977;SDS011;3015;51.390;12.256;2022-10-13T00:26:14;11.38;;;10.18;;
5977;SDS011;3015;51.390;12.256;2022-10-13T00:28:40;12.75;;;10.68;;
5977;SDS011;3015;51.390;12.256;2022-10-13T00:33:48;12.35;;;9.90;;
5977;SDS011;3015;51.390;12.256;2022-10-13T00:36:14;10.80;;;9.70;;
5977;SDS011;3015;51.390;12.256;2022-10-13T00:38:40;10.93;;;9.83;;
5977;SDS011;3015;51.390;12.256;2022-10-13T00:41:06;11.33;;;10.23;;
5977;SDS011;3015;51.390;12.256;2022-10-13T00:46:34;11.82;;;10.63;;
5977;SDS011;3015;51.390;12.256;2022-10-13T00:49:03;11.95;;;10.75;;
5977;SDS011;3015;51.390;12.256;2022-10-13T00:51:35;11.25;;;10.13;;
5977;SDS011;3015;51.390;12.256;2022-10-13T00:54:04;11.50;;;10.30;;
5977;SDS011;3015;51.390;12.256;2022-10-13T00:56:33;10.63;;;9.63;;
5977;SDS011;3015;51.390;12.256;2022-10-13T00:59:00;12.57;;;10.20;;
5977;SDS011;3015;51.390;12.256;2022-10-13T01:01:30;9.73;;;8.82;;
5977;SDS011;3015;51.390;12.256;2022-10-13T01:03:55;11.48;;;10.10;;
5977;SDS011;3015;51.390;12.256;2022-10-13T01:06:21;10.87;;;9.73;;
5977;SDS011;3015;51.390;12.256;2022-10-13T01:08:47;11.85;;;10.65;;
5977;SDS011;3015;51.390;12.256;2022-10-13T01:11:31;12.97;;;11.00;;
5977;SDS011;3015;51.390;12.256;2022-10-13T01:17:10;14.20;;;11.15;;
5977;SDS011;3015;51.390;12.256;2022-10-13T01:28:11;12.68;;;10.80;;
5977;SDS011;3015;51.390;12.256;2022-10-13T01:30:54;12.30;;;11.10;;
5977;SDS011;3015;51.390;12.256;2022-10-13T01:33:35;13.35;;;11.95;;
5977;SDS011;3015;51.390;12.256;2022-10-13T01:36:25;12.35;;;10.88;;
5977;SDS011;3015;51.390;12.256;2022-10-13T01:39:13;13.85;;;11.18;;
5977;SDS011;3015;51.390;12.256;2022-10-13T01:41:57;16.70;;;13.02;;
5977;SDS011;3015;51.390;12.256;2022-10-13T01:44:35;13.15;;;11.95;;
5977;SDS011;3015;51.390;12.256;2022-10-13T01:47:05;14.93;;;10.50;;
5977;SDS011;3015;51.390;12.256;2022-10-13T01:49:33;10.73;;;9.60;;
5977;SDS011;3015;51.390;12.256;2022-10-13T01:52:01;12.98;;;11.10;;
5977;SDS011;3015;51.390;12.256;2022-10-13T01:54:31;10.55;;;9.63;;
5977;SDS011;3015;51.390;12.256;2022-10-13T01:56:57;12.88;;;11.57;;
5977;SDS011;3015;51.390;12.256;2022-10-13T01:59:23;12.37;;;11.10;;
5977;SDS011;3015;51.390;12.256;2022-10-13T02:07:39;14.27;;;12.00;;
5977;SDS011;3015;51.390;12.256;2022-10-13T02:13:02;14.07;;;12.20;;
5977;SDS011;3015;51.390;12.256;2022-10-13T02:15:41;15.57;;;12.20;;
5977;SDS011;3015;51.390;12.256;2022-10-13T02:18:12;15.13;;;11.65;;
5977;SDS011;3015;51.390;12.256;2022-10-13T02:20:40;13.63;;;11.75;;
5977;SDS011;3015;51.390;12.256;2022-10-13T02:23:08;15.35;;;11.80;;
5977;SDS011;3015;51.390;12.256;2022-10-13T02:25:37;12.98;;;11.65;;
5977;SDS011;3015;51.390;12.256;2022-10-13T02:28:03;13.48;;;12.07;;
5977;SDS011;3015;51.390;12.256;2022-10-13T02:30:30;13.50;;;11.27;;
5977;SDS011;3015;51.390;12.256;2022-10-13T02:32:57;15.45;;;12.77;;
5977;SDS011;3015;51.390;12.256;2022-10-13T02:35:23;14.20;;;12.50;;
5977;SDS011;3015;51.390;12.256;2022-10-13T02:37:49;13.23;;;11.83;;
5977;SDS011;3015;51.390;12.256;2022-10-13T02:40:15;13.90;;;12.47;;
5977;SDS011;3015;51.390;12.256;2022-10-13T02:42:41;14.70;;;12.30;;
5977;SDS011;3015;51.390;12.256;2022-10-13T02:45:06;13.17;;;11.57;;
5977;SDS011;3015;51.390;12.256;2022-10-13T02:47:32;12.27;;;11.15;;
5977;SDS011;3015;51.390;12.256;2022-10-13T02:49:58;13.10;;;11.20;;
5977;SDS011;3015;51.390;12.256;2022-10-13T02:52:24;12.30;;;11.17;;
5977;SDS011;3015;51.390;12.256;2022-10-13T02:54:49;12.33;;;10.87;;
5977;SDS011;3015;51.390;12.256;2022-10-13T02:57:16;11.67;;;10.57;;
5977;SDS011;3015;51.390;12.256;2022-10-13T02:59:42;12.15;;;10.85;;
5977;SDS011;3015;51.390;12.256;2022-10-13T03:02:08;12.40;;;11.10;;
5977;SDS011;3015;51.390;12.256;2022-10-13T03:04:34;12.07;;;10.77;;
5977;SDS011;3015;51.390;12.256;2022-10-13T03:07:00;12.80;;;11.70;;
5977;SDS011;3015;51.390;12.256;2022-10-13T03:09:25;14.20;;;12.90;;
5977;SDS011;3015;51.390;12.256;2022-10-13T03:11:51;13.43;;;12.07;;
5977;SDS011;3015;51.390;12.256;2022-10-13T03:14:17;14.87;;;12.40;;
5977;SDS011;3015;51.390;12.256;2022-10-13T03:16:43;13.40;;;11.63;;
5977;SDS011;3015;51.390;12.256;2022-10-13T03:19:09;12.40;;;11.20;;
5977;SDS011;3015;51.390;12.256;2022-10-13T03:21:36;13.05;;;11.60;;
5977;SDS011;3015;51.390;12.256;2022-10-13T03:24:02;16.27;;;11.95;;
5977;SDS011;3015;51.390;12.256;2022-10-13T03:26:30;13.05;;;11.45;;
5977;SDS011;3015;51.390;12.256;2022-10-13T03:28:56;15.68;;;13.15;;
5977;SDS011;3015;51.390;12.256;2022-10-13T03:31:22;16.10;;;14.50;;
5977;SDS011;3015;51.390;12.256;2022-10-13T03:33:48;17.13;;;13.53;;
5977;SDS011;3015;51.390;12.256;2022-10-13T03:36:13;15.07;;;13.57;;
5977;SDS011;3015;51.390;12.256;2022-10-13T03:38:39;15.83;;;13.00;;
5977;SDS011;3015;51.390;12.256;2022-10-13T03:41:05;12.90;;;11.60;;
5977;SDS011;3015;51.390;12.256;2022-10-13T03:43:33;15.27;;;13.05;;
5977;SDS011;3015;51.390;12.256;2022-10-13T03:46:00;14.10;;;12.17;;
5977;SDS011;3015;51.390;12.256;2022-10-13T03:48:27;13.75;;;12.45;;
5977;SDS011;3015;51.390;12.256;2022-10-13T03:50:53;14.77;;;13.23;;
5977;SDS011;3015;51.390;12.256;2022-10-13T03:53:19;15.30;;;12.90;;
5977;SDS011;3015;51.390;12.256;2022-10-13T03:55:49;15.20;;;13.10;;
5977;SDS011;3015;51.390;12.256;2022-10-13T03:58:19;16.48;;;12.75;;
5977;SDS011;3015;51.390;12.256;2022-10-13T04:00:47;15.48;;;13.95;;
5977;SDS011;3015;51.390;12.256;2022-10-13T04:03:13;14.25;;;12.85;;
5977;SDS011;3015;51.390;12.256;2022-10-13T04:05:39;15.43;;;14.00;;
5977;SDS011;3015;51.390;12.256;2022-10-13T04:08:05;14.07;;;12.67;;
5977;SDS011;3015;51.390;12.256;2022-10-13T04:10:31;17.83;;;13.60;;
5977;SDS011;3015;51.390;12.256;2022-10-13T04:12:56;14.70;;;13.20;;
5977;SDS011;3015;51.390;12.256;2022-10-13T04:15:22;14.60;;;13.00;;
5977;SDS011;3015;51.390;12.256;2022-10-13T04:17:48;15.63;;;14.07;;
5977;SDS011;3015;51.390;12.256;2022-10-13T04:20:14;13.47;;;12.23;;
5977;SDS011;3015;51.390;12.256;2022-10-13T04:22:39;14.40;;;11.87;;
5977;SDS011;3015;51.390;12.256;2022-10-13T04:25:05;19.03;;;12.73;;
5977;SDS011;3015;51.390;12.256;2022-10-13T04:27:31;13.90;;;12.50;;
5977;SDS011;3015;51.390;12.256;2022-10-13T04:29:57;16.33;;;12.60;;
5977;SDS011;3015;51.390;12.256;2022-10-13T04:32:23;14.23;;;12.83;;
5977;SDS011;3015;51.390;12.256;2022-10-13T04:34:48;16.07;;;13.50;;
5977;SDS011;3015;51.390;12.256;2022-10-13T04:37:14;14.30;;;12.80;;
5977;SDS011;3015;51.390;12.256;2022-10-13T04:39:40;15.80;;;14.10;;
5977;SDS011;3015;51.390;12.256;2022-10-13T04:42:05;13.17;;;11.90;;
5977;SDS011;3015;51.390;12.256;2022-10-13T04:44:31;13.10;;;11.83;;
5977;SDS011;3015;51.390;12.256;2022-10-13T04:46:57;17.13;;;12.60;;
5977;SDS011;3015;51.390;12.256;2022-10-13T04:49:24;15.30;;;13.80;;
5977;SDS011;3015;51.390;12.256;2022-10-13T04:51:50;19.20;;;14.03;;
5977;SDS011;3015;51.390;12.256;2022-10-13T04:54:16;13.53;;;12.10;;
5977;SDS011;3015;51.390;12.256;2022-10-13T04:56:42;16.90;;;12.93;;
5977;SDS011;3015;51.390;12.256;2022-10-13T04:59:09;16.20;;;13.10;;
5977;SDS011;3015;51.390;12.256;2022-10-13T05:01:35;14.77;;;12.53;;
5977;SDS011;3015;51.390;12.256;2022-10-13T05:04:01;16.40;;;12.63;;
5977;SDS011;3015;51.390;12.256;2022-10-13T05:06:30;14.88;;;13.38;;
5977;SDS011;3015;51.390;12.256;2022-10-13T05:08:57;15.75;;;14.18;;
5977;SDS011;3015;51.390;12.256;2022-10-13T05:11:24;15.95;;;13.27;;
5977;SDS011;3015;51.390;12.256;2022-10-13T05:13:53;14.40;;;12.98;;
5977;SDS011;3015;51.390;12.256;2022-10-13T05:16:19;17.05;;;15.35;;
5977;SDS011;3015;51.390;12.256;2022-10-13T05:18:46;14.50;;;13.02;;
5977;SDS011;3015;51.390;12.256;2022-10-13T05:21:16;17.42;;;13.60;;
5977;SDS011;3015;51.390;12.256;2022-10-13T05:23:44;15.18;;;13.68;;
5977;SDS011;3015;51.390;12.256;2022-10-13T05:26:15;16.73;;;14.90;;
5977;SDS011;3015;51.390;12.256;2022-10-13T05:28:41;19.70;;;14.95;;
5977;SDS011;3015;51.390;12.256;2022-10-13T05:33:44;15.90;;;14.30;;
5977;SDS011;3015;51.390;12.256;2022-10-13T05:36:29;18.27;;;13.70;;
5977;SDS011;3015;51.390;12.256;2022-10-13T05:38:58;16.00;;;14.30;;
5977;SDS011;3015;51.390;12.256;2022-10-13T05:41:25;15.82;;;13.85;;
5977;SDS011;3015;51.390;12.256;2022-10-13T05:43:52;19.25;;;16.13;;
5977;SDS011;3015;51.390;12.256;2022-10-13T05:46:21;16.13;;;14.43;;
5977;SDS011;3015;51.390;12.256;2022-10-13T05:48:47;17.92;;;15.20;;
5977;SDS011;3015;51.390;12.256;2022-10-13T05:51:18;17.52;;;15.00;;
5977;SDS011;3015;51.390;12.256;2022-10-13T05:53:52;17.02;;;15.10;;
5977;SDS011;3015;51.390;12.256;2022-10-13T05:56:25;16.50;;;14.88;;
5977;SDS011;3015;51.390;12.256;2022-10-13T05:58:54;15.05;;;13.57;;
5977;SDS011;3015;51.390;12.256;2022-10-13T06:01:25;15.57;;;13.98;;
5977;SDS011;3015;51.390;12.256;2022-10-13T06:03:54;16.05;;;12.95;;
5977;SDS011;3015;51.390;12.256;2022-10-13T06:06:25;17.58;;;14.18;;
5977;SDS011;3015;51.390;12.256;2022-10-13T06:08:51;14.80;;;13.20;;
5977;SDS011;3015;51.390;12.256;2022-10-13T06:11:17;17.27;;;15.38;;
5977;SDS011;3015;51.390;12.256;2022-10-13T06:13:42;15.10;;;13.47;;
5977;SDS011;3015;51.390;12.256;2022-10-13T06:16:08;17.93;;;14.07;;
5977;SDS011;3015;51.390;12.256;2022-10-13T06:18:34;16.03;;;14.47;;
5977;SDS011;3015;51.390;12.256;2022-10-13T06:20:59;18.57;;;14.90;;
5977;SDS011;3015;51.390;12.256;2022-10-13T06:23:25;16.13;;;14.07;;
5977;SDS011;3015;51.390;12.256;2022-10-13T06:25:51;18.30;;;16.20;;
5977;SDS011;3015;51.390;12.256;2022-10-13T06:28:18;17.83;;;15.65;;
5977;SDS011;3015;51.390;12.256;2022-10-13T06:30:45;20.17;;;14.43;;
5977;SDS011;3015;51.390;12.256;2022-10-13T06:33:13;17.77;;;15.43;;
5977;SDS011;3015;51.390;12.256;2022-10-13T06:35:39;17.37;;;15.53;;
5977;SDS011;3015;51.390;12.256;2022-10-13T06:38:04;18.87;;;15.57;;
5977;SDS011;3015;51.390;12.256;2022-10-13T06:40:30;16.53;;;14.80;;
5977;SDS011;3015;51.390;12.256;2022-10-13T06:42:56;21.30;;;16.13;;
5977;SDS011;3015;51.390;12.256;2022-10-13T06:45:22;21.02;;;16.95;;
5977;SDS011;3015;51.390;12.256;2022-10-13T06:47:48;18.43;;;16.43;;
5977;SDS011;3015;51.390;12.256;2022-10-13T06:50:13;23.83;;;19.30;;
5977;SDS011;3015;51.390;12.256;2022-10-13T06:52:39;19.17;;;17.23;;
5977;SDS011;3015;51.390;12.256;2022-10-13T06:55:04;19.37;;;17.10;;
5977;SDS011;3015;51.390;12.256;2022-10-13T06:57:30;18.90;;;17.00;;
5977;SDS011;3015;51.390;12.256;2022-10-13T06:59:56;28.63;;;18.63;;
5977;SDS011;3015;51.390;12.256;2022-10-13T07:02:21;20.60;;;16.73;;
5977;SDS011;3015;51.390;12.256;2022-10-13T07:04:47;22.33;;;17.27;;
5977;SDS011;3015;51.390;12.256;2022-10-13T07:07:13;25.60;;;18.50;;
5977;SDS011;3015;51.390;12.256;2022-10-13T07:09:40;19.60;;;17.20;;
5977;SDS011;3015;51.390;12.256;2022-10-13T07:12:05;21.97;;;18.07;;
5977;SDS011;3015;51.390;12.256;2022-10-13T07:14:32;21.87;;;19.07;;
5977;SDS011;3015;51.390;12.256;2022-10-13T07:16:57;20.10;;;17.17;;
5977;SDS011;3015;51.390;12.256;2022-10-13T07:19:23;19.83;;;17.30;;
5977;SDS011;3015;51.390;12.256;2022-10-13T07:21:49;24.90;;;17.23;;
5977;SDS011;3015;51.390;12.256;2022-10-13T07:24:15;22.13;;;19.87;;
5977;SDS011;3015;51.390;12.256;2022-10-13T07:26:40;22.53;;;18.90;;
5977;SDS011;3015;51.390;12.256;2022-10-13T07:29:06;25.17;;;18.93;;
5977;SDS011;3015;51.390;12.256;2022-10-13T07:31:32;21.53;;;19.20;;
5977;SDS011;3015;51.390;12.256;2022-10-13T07:33:58;30.43;;;20.60;;
5977;SDS011;3015;51.390;12.256;2022-10-13T07:36:24;25.27;;;20.10;;
5977;SDS011;3015;51.390;12.256;2022-10-13T07:38:50;27.57;;;20.60;;
5977;SDS011;3015;51.390;12.256;2022-10-13T07:41:15;26.87;;;19.67;;
5977;SDS011;3015;51.390;12.256;2022-10-13T07:43:41;24.77;;;20.30;;
5977;SDS011;3015;51.390;12.256;2022-10-13T07:46:07;25.30;;;19.87;;
5977;SDS011;3015;51.390;12.256;2022-10-13T07:48:34;27.80;;;21.07;;
5977;SDS011;3015;51.390;12.256;2022-10-13T07:51:03;23.03;;;20.23;;
5977;SDS011;3015;51.390;12.256;2022-10-13T07:53:31;21.40;;;16.97;;
5977;SDS011;3015;51.390;12.256;2022-10-13T07:56:00;21.37;;;19.13;;
5977;SDS011;3015;51.390;12.256;2022-10-13T07:58:26;20.30;;;18.17;;
5977;SDS011;3015;51.390;12.256;2022-10-13T08:00:59;23.00;;;19.53;;
5977;SDS011;3015;51.390;12.256;2022-10-13T08:03:26;22.00;;;19.27;;
5977;SDS011;3015;51.390;12.256;2022-10-13T08:05:52;22.03;;;18.73;;
5977;SDS011;3015;51.390;12.256;2022-10-13T08:08:19;22.03;;;18.30;;
5977;SDS011;3015;51.390;12.256;2022-10-13T08:10:45;23.13;;;17.83;;
5977;SDS011;3015;51.390;12.256;2022-10-13T08:13:11;22.50;;;18.80;;
5977;SDS011;3015;51.390;12.256;2022-10-13T08:15:43;20.77;;;18.53;;
5977;SDS011;3015;51.390;12.256;2022-10-13T08:18:09;20.37;;;18.33;;
5977;SDS011;3015;51.390;12.256;2022-10-13T08:20:39;20.40;;;17.70;;
5977;SDS011;3015;51.390;12.256;2022-10-13T08:23:06;21.60;;;18.50;;
5977;SDS011;3015;51.390;12.256;2022-10-13T08:25:38;22.13;;;17.10;;
5977;SDS011;3015;51.390;12.256;2022-10-13T08:28:05;22.47;;;18.17;;
5977;SDS011;3015;51.390;12.256;2022-10-13T08:30:35;21.03;;;18.17;;
5977;SDS011;3015;51.390;12.256;2022-10-13T08:33:01;21.37;;;18.87;;
5977;SDS011;3015;51.390;12.256;2022-10-13T08:35:27;20.33;;;18.23;;
5977;SDS011;3015;51.390;12.256;2022-10-13T08:37:52;23.80;;;19.67;;
5977;SDS011;3015;51.390;12.256;2022-10-13T08:40:18;19.23;;;17.23;;
5977;SDS011;3015;51.390;12.256;2022-10-13T08:42:46;21.93;;;17.93;;
5977;SDS011;3015;51.390;12.256;2022-10-13T08:45:15;22.30;;;18.73;;
5977;SDS011;3015;51.390;12.256;2022-10-13T08:47:53;22.50;;;19.00;;
5977;SDS011;3015;51.390;12.256;2022-10-13T08:50:31;23.07;;;19.10;;
5977;SDS011;3015;51.390;12.256;2022-10-13T08:55:45;22.93;;;19.73;;
5977;SDS011;3015;51.390;12.256;2022-10-13T09:00:42;26.57;;;19.67;;
5977;SDS011;3015;51.390;12.256;2022-10-13T09:03:24;24.73;;;19.97;;
5977;SDS011;3015;51.390;12.256;2022-10-13T09:05:57;23.20;;;19.73;;
5977;SDS011;3015;51.390;12.256;2022-10-13T09:08:37;21.80;;;18.17;;
5977;SDS011;3015;51.390;12.256;2022-10-13T09:11:16;21.23;;;18.80;;
5977;SDS011;3015;51.390;12.256;2022-10-13T09:13:42;34.00;;;21.63;;
5977;SDS011;3015;51.390;12.256;2022-10-13T09:16:07;22.20;;;19.90;;
5977;SDS011;3015;51.390;12.256;2022-10-13T09:18:33;24.83;;;19.63;;
5977;SDS011;3015;51.390;12.256;2022-10-13T09:23:46;24.43;;;19.33;;
5977;SDS011;3015;51.390;12.256;2022-10-13T09:26:16;21.30;;;18.33;;
5977;SDS011;3015;51.390;12.256;2022-10-13T09:28:44;19.50;;;17.30;;
5977;SDS011;3015;51.390;12.256;2022-10-13T09:31:15;22.47;;;18.70;;
5977;SDS011;3015;51.390;12.256;2022-10-13T09:33:43;21.77;;;18.10;;
5977;SDS011;3015;51.390;12.256;2022-10-13T09:36:14;20.30;;;16.13;;
5977;SDS011;3015;51.390;12.256;2022-10-13T09:38:41;20.07;;;17.97;;
5977;SDS011;3015;51.390;12.256;2022-10-13T09:48:42;18.97;;;16.97;;
5977;SDS011;3015;51.390;12.256;2022-10-13T09:51:26;22.40;;;17.50;;
5977;SDS011;3015;51.390;12.256;2022-10-13T09:53:59;27.53;;;20.03;;
5977;SDS011;3015;51.390;12.256;2022-10-13T09:56:26;24.90;;;17.57;;
5977;SDS011;3015;51.390;12.256;2022-10-13T09:59:14;22.53;;;18.93;;
5977;SDS011;3015;51.390;12.256;2022-10-13T10:01:55;22.90;;;18.33;;
5977;SDS011;3015;51.390;12.256;2022-10-13T10:04:28;23.47;;;18.23;;
5977;SDS011;3015;51.390;12.256;2022-10-13T10:06:58;20.77;;;18.57;;
5977;SDS011;3015;51.390;12.256;2022-10-13T10:09:31;24.67;;;18.97;;
5977;SDS011;3015;51.390;12.256;2022-10-13T10:12:03;21.07;;;18.93;;
5977;SDS011;3015;51.390;12.256;2022-10-13T10:14:34;20.70;;;18.50;;
5977;SDS011;3015;51.390;12.256;2022-10-13T10:30:34;20.57;;;18.40;;
5977;SDS011;3015;51.390;12.256;2022-10-13T10:33:08;21.30;;;17.90;;
5977;SDS011;3015;51.390;12.256;2022-10-13T10:35:40;20.03;;;16.57;;
5977;SDS011;3015;51.390;12.256;2022-10-13T10:38:26;23.87;;;19.37;;
5977;SDS011;3015;51.390;12.256;2022-10-13T10:43:40;24.53;;;21.20;;
5977;SDS011;3015;51.390;12.256;2022-10-13T10:46:34;24.70;;;19.17;;
5977;SDS011;3015;51.390;12.256;2022-10-13T10:49:36;27.07;;;20.37;;
5977;SDS011;3015;51.390;12.256;2022-10-13T10:51:59;22.57;;;19.10;;
5977;SDS011;3015;51.390;12.256;2022-10-13T10:57:07;20.83;;;17.47;;
5977;SDS011;3015;51.390;12.256;2022-10-13T11:05:05;21.20;;;17.07;;
5977;SDS011;3015;51.390;12.256;2022-10-13T11:09:59;21.00;;;16.20;;
5977;SDS011;3015;51.390;12.256;2022-10-13T11:17:47;15.30;;;13.67;;
5977;SDS011;3015;51.390;12.256;2022-10-13T11:25:38;19.93;;;14.30;;
5977;SDS011;3015;51.390;12.256;2022-10-13T11:42:04;12.90;;;11.50;;
5977;SDS011;3015;51.390;12.256;2022-10-13T11:50:25;13.07;;;11.80;;
5977;SDS011;3015;51.390;12.256;2022-10-13T11:58:31;15.43;;;13.80;;
5977;SDS011;3015;51.390;12.256;2022-10-13T12:01:04;19.87;;;13.90;;
5977;SDS011;3015;51.390;12.256;2022-10-13T12:03:37;15.47;;;13.80;;
5977;SDS011;3015;51.390;12.256;2022-10-13T12:06:06;18.43;;;14.27;;
5977;SDS011;3015;51.390;12.256;2022-10-13T12:08:57;14.43;;;12.93;;
5977;SDS011;3015;51.390;12.256;2022-10-13T12:11:25;15.90;;;13.20;;
5977;SDS011;3015;51.390;12.256;2022-10-13T12:13:53;14.37;;;12.90;;
5977;SDS011;3015;51.390;12.256;2022-10-13T12:16:19;20.67;;;13.40;;
5977;SDS011;3015;51.390;12.256;2022-10-13T12:18:45;15.70;;;12.40;;
5977;SDS011;3015;51.390;12.256;2022-10-13T12:21:16;12.77;;;11.57;;
5977;SDS011;3015;51.390;12.256;2022-10-13T12:23:45;13.77;;;12.50;;
5977;SDS011;3015;51.390;12.256;2022-10-13T12:26:16;11.80;;;10.50;;
5977;SDS011;3015;51.390;12.256;2022-10-13T12:28:53;13.40;;;11.80;;
5977;SDS011;3015;51.390;12.256;2022-10-13T12:31:25;13.37;;;11.87;;
5977;SDS011;3015;51.390;12.256;2022-10-13T12:36:32;14.47;;;12.60;;
5977;SDS011;3015;51.390;12.256;2022-10-13T12:39:09;14.60;;;13.17;;
5977;SDS011;3015;51.390;12.256;2022-10-13T12:41:40;13.30;;;11.87;;
5977;SDS011;3015;51.390;12.256;2022-10-13T12:44:27;13.30;;;12.10;;
5977;SDS011;3015;51.390;12.256;2022-10-13T12:46:55;13.60;;;12.30;;
5977;SDS011;3015;51.390;12.256;2022-10-13T12:52:08;12.70;;;11.43;;
5977;SDS011;3015;51.390;12.256;2022-10-13T12:54:52;12.70;;;11.10;;
5977;SDS011;3015;51.390;12.256;2022-10-13T13:00:00;11.83;;;10.77;;
5977;SDS011;3015;51.390;12.256;2022-10-13T13:02:28;12.67;;;11.40;;
5977;SDS011;3015;51.390;12.256;2022-10-13T13:04:56;11.60;;;10.37;;
5977;SDS011;3015;51.390;12.256;2022-10-13T13:10:22;12.10;;;10.33;;
5977;SDS011;3015;51.390;12.256;2022-10-13T13:12:47;11.77;;;10.40;;
5977;SDS011;3015;51.390;12.256;2022-10-13T13:17:48;11.50;;;10.30;;
5977;SDS011;3015;51.390;12.256;2022-10-13T13:20:33;12.60;;;11.33;;
5977;SDS011;3015;51.390;12.256;2022-10-13T13:23:01;13.70;;;10.70;;
5977;SDS011;3015;51.390;12.256;2022-10-13T13:25:27;11.93;;;10.80;;
5977;SDS011;3015;51.390;12.256;2022-10-13T13:27:52;14.20;;;11.50;;
5977;SDS011;3015;51.390;12.256;2022-10-13T13:30:19;11.77;;;10.17;;
5977;SDS011;3015;51.390;12.256;2022-10-13T13:32:46;13.87;;;10.50;;
5977;SDS011;3015;51.390;12.256;2022-10-13T13:35:12;11.77;;;9.63;;
5977;SDS011;3015;51.390;12.256;2022-10-13T13:37:38;12.73;;;11.37;;
5977;SDS011;3015;51.390;12.256;2022-10-13T13:40:07;13.57;;;12.17;;
5977;SDS011;3015;51.390;12.256;2022-10-13T13:42:39;12.20;;;10.93;;
5977;SDS011;3015;51.390;12.256;2022-10-13T13:45:05;12.67;;;11.20;;
5977;SDS011;3015;51.390;12.256;2022-10-13T13:47:31;12.87;;;10.30;;
5977;SDS011;3015;51.390;12.256;2022-10-13T13:49:57;14.50;;;11.43;;
5977;SDS011;3015;51.390;12.256;2022-10-13T13:52:23;12.80;;;11.53;;
5977;SDS011;3015;51.390;12.256;2022-10-13T13:54:49;12.97;;;11.60;;
5977;SDS011;3015;51.390;12.256;2022-10-13T13:57:16;13.83;;;12.43;;
5977;SDS011;3015;51.390;12.256;2022-10-13T13:59:41;11.97;;;10.87;;
5977;SDS011;3015;51.390;12.256;2022-10-13T14:02:12;10.83;;;9.60;;
5977;SDS011;3015;51.390;12.256;2022-10-13T14:04:42;12.53;;;11.23;;
5977;SDS011;3015;51.390;12.256;2022-10-13T14:07:08;11.70;;;10.70;;
5977;SDS011;3015;51.390;12.256;2022-10-13T14:09:34;13.40;;;12.13;;
5977;SDS011;3015;51.390;12.256;2022-10-13T14:12:00;10.67;;;9.53;;
5977;SDS011;3015;51.390;12.256;2022-10-13T14:14:28;13.80;;;12.50;;
5977;SDS011;3015;51.390;12.256;2022-10-13T14:16:55;11.57;;;10.37;;
5977;SDS011;3015;51.390;12.256;2022-10-13T14:19:21;12.43;;;11.43;;
5977;SDS011;3015;51.390;12.256;2022-10-13T14:21:47;12.47;;;11.37;;
5977;SDS011;3015;51.390;12.256;2022-10-13T14:24:13;11.97;;;10.90;;
5977;SDS011;3015;51.390;12.256;2022-10-13T14:26:38;11.87;;;10.70;;
5977;SDS011;3015;51.390;12.256;2022-10-13T14:29:04;11.63;;;10.43;;
5977;SDS011;3015;51.390;12.256;2022-10-13T14:31:30;11.23;;;10.23;;
5977;SDS011;3015;51.390;12.256;2022-10-13T14:33:56;12.97;;;11.80;;
5977;SDS011;3015;51.390;12.256;2022-10-13T14:36:22;13.03;;;11.40;;
5977;SDS011;3015;51.390;12.256;2022-10-13T14:38:48;12.17;;;10.97;;
5977;SDS011;3015;51.390;12.256;2022-10-13T14:41:15;11.57;;;10.50;;
5977;SDS011;3015;51.390;12.256;2022-10-13T14:43:41;11.93;;;10.80;;
5977;SDS011;3015;51.390;12.256;2022-10-13T14:46:08;14.60;;;12.00;;
5977;SDS011;3015;51.390;12.256;2022-10-13T14:48:34;14.10;;;10.57;;
5977;SDS011;3015;51.390;12.256;2022-10-13T14:51:04;13.90;;;11.17;;
5977;SDS011;3015;51.390;12.256;2022-10-13T14:53:34;9.37;;;8.57;;
5977;SDS011;3015;51.390;12.256;2022-10-13T14:56:01;9.57;;;8.77;;
5977;SDS011;3015;51.390;12.256;2022-10-13T14:58:27;12.90;;;11.80;;
5977;SDS011;3015;51.390;12.256;2022-10-13T15:00:53;12.70;;;11.40;;
5977;SDS011;3015;51.390;12.256;2022-10-13T15:03:19;10.43;;;9.43;;
5977;SDS011;3015;51.390;12.256;2022-10-13T15:05:46;11.83;;;10.00;;
5977;SDS011;3015;51.390;12.256;2022-10-13T15:08:12;13.07;;;11.53;;
5977;SDS011;3015;51.390;12.256;2022-10-13T15:10:37;11.80;;;10.33;;
5977;SDS011;3015;51.390;12.256;2022-10-13T15:13:03;12.60;;;9.77;;
5977;SDS011;3015;51.390;12.256;2022-10-13T15:15:29;9.50;;;8.60;;
5977;SDS011;3015;51.390;12.256;2022-10-13T15:17:54;11.40;;;10.20;;
5977;SDS011;3015;51.390;12.256;2022-10-13T15:20:20;12.07;;;10.57;;
5977;SDS011;3015;51.390;12.256;2022-10-13T15:22:46;12.40;;;10.17;;
5977;SDS011;3015;51.390;12.256;2022-10-13T15:25:12;13.27;;;9.50;;
5977;SDS011;3015;51.390;12.256;2022-10-13T15:27:38;15.97;;;11.23;;
5977;SDS011;3015;51.390;12.256;2022-10-13T15:30:05;10.83;;;9.60;;
5977;SDS011;3015;51.390;12.256;2022-10-13T15:32:31;12.10;;;10.63;;
5977;SDS011;3015;51.390;12.256;2022-10-13T15:34:57;11.50;;;10.40;;
5977;SDS011;3015;51.390;12.256;2022-10-13T15:37:23;12.50;;;11.30;;
5977;SDS011;3015;51.390;12.256;2022-10-13T15:39:48;12.90;;;11.67;;
5977;SDS011;3015;51.390;12.256;2022-10-13T15:42:14;12.73;;;11.53;;
5977;SDS011;3015;51.390;12.256;2022-10-13T15:44:39;12.90;;;11.77;;
5977;SDS011;3015;51.390;12.256;2022-10-13T15:47:05;13.30;;;12.20;;
5977;SDS011;3015;51.390;12.256;2022-10-13T15:49:31;12.80;;;11.50;;
5977;SDS011;3015;51.390;12.256;2022-10-13T15:52:03;12.27;;;11.13;;
5977;SDS011;3015;51.390;12.256;2022-10-13T15:54:29;12.10;;;10.90;;
5977;SDS011;3015;51.390;12.256;2022-10-13T15:56:55;12.37;;;11.27;;
5977;SDS011;3015;51.390;12.256;2022-10-13T15:59:20;12.43;;;10.30;;
5977;SDS011;3015;51.390;12.256;2022-10-13T16:01:46;9.33;;;8.43;;
5977;SDS011;3015;51.390;12.256;2022-10-13T16:04:11;11.83;;;10.73;;
5977;SDS011;3015;51.390;12.256;2022-10-13T16:06:37;11.80;;;9.60;;
5977;SDS011;3015;51.390;12.256;2022-10-13T16:09:03;11.73;;;10.63;;
5977;SDS011;3015;51.390;12.256;2022-10-13T16:11:28;11.70;;;10.60;;
5977;SDS011;3015;51.390;12.256;2022-10-13T16:13:54;11.63;;;10.60;;
5977;SDS011;3015;51.390;12.256;2022-10-13T16:16:19;12.70;;;10.20;;
5977;SDS011;3015;51.390;12.256;2022-10-13T16:18:46;12.00;;;11.00;;
5977;SDS011;3015;51.390;12.256;2022-10-13T16:21:13;11.30;;;10.20;;
5977;SDS011;3015;51.390;12.256;2022-10-13T16:23:44;11.37;;;10.37;;
5977;SDS011;3015;51.390;12.256;2022-10-13T16:26:11;12.03;;;10.70;;
5977;SDS011;3015;51.390;12.256;2022-10-13T16:28:37;12.50;;;10.83;;
5977;SDS011;3015;51.390;12.256;2022-10-13T16:31:03;12.43;;;11.30;;
5977;SDS011;3015;51.390;12.256;2022-10-13T16:33:33;17.60;;;11.70;;
5977;SDS011;3015;51.390;12.256;2022-10-13T16:36:03;14.93;;;11.13;;
5977;SDS011;3015;51.390;12.256;2022-10-13T16:38:30;11.93;;;9.90;;
5977;SDS011;3015;51.390;12.256;2022-10-13T16:40:56;10.40;;;9.40;;
5977;SDS011;3015;51.390;12.256;2022-10-13T16:43:21;10.80;;;8.57;;